Historyczne dane pomiarowe

Dodano dane terminowe – wersja testowa.

Dane z okresu 1951-2019

Wersja bazy: 1.34 [2019-03-16, lista zmian], aktualizacja planowana na 2019-04-15

Dane meteo z obszaru Polski uzyskane na podstawie danych udostępnionych przez Instytut Meteorologii i Gospodarki Wodnej – Państwowy Instytut Badawczy.

 

Wybierz Datę:    

       

TemperaturaWilgotnośćWiatrCiśnienieOpadyŚniegCzas trwania zjawisk
 Stacja t tx tn tng RH VA  wxwx mslp ppp RRR   cm mm wxwxwxwxwxwxwx
2010-02-25 5.5 14.0 0.3 -2.7 81.3- 3.3 1.7---- 0.0------------
2010-02-26 6.7 10.2 2.8 1.8 72.0- 7.0 5.0---- 4.3------------
2010-02-27 4.1 8.8 1.2 -1.0 79.5- 4.3 2.3---- 0.8------------
2010-02-28 7.1 13.5 1.9 -2.3 54.0- 4.0 4.0---- 7.2------------
2010-03-01 7.2 10.6 4.2 1.9 58.5- 4.3 5.3---- 0.6------------
2010-03-02 1.8 6.9 -2.7 -5.8 68.3- 3.0 2.0---- 0.0------------
2010-03-03 1.4 4.8 -1.2 -5.0 63.3- 3.3 3.0---- 0.0------------
2010-03-04 -1.8 4.0 -6.1 -8.6 80.0- 4.7 1.3---- 0.5------------
2010-03-05 -3.6 0.6 -5.7 -9.5 81.3- 6.3 1.7---- 0.9-- 1---------
2010-03-06 -4.6 -1.5 -6.6-10.7 81.3- 5.0 1.0---- 0.9-- 2---------
2010-03-07 -4.6 -2.0 -6.0-11.1 80.0- 3.3 1.3---- 0.0-- 3---------
2010-03-08 -7.2 -0.5-12.4-14.7 75.3- 1.7 1.3---- 0.0-- 2---------
2010-03-09 -7.1 -1.0-11.6-13.8 74.8- 0.3 1.3---- 0.0------------
2010-03-10 -4.8 2.3-10.6-13.4 69.5- 1.0 1.7---- 0.0------------
2010-03-11 -2.9 -1.0 -4.1 -6.0 79.3- 7.7 1.3---- 4.8------------
2010-03-12 -2.2 -0.4 -4.1 -5.0 84.5- 8.0 1.0---- 2.3-- 6---------
2010-03-13 0.6 2.0 -0.7 -3.1 94.8- 8.0 1.3---- 8.4-- 8---------
2010-03-14 2.7 4.6 0.3 -1.6 82.0- 6.7 3.0---- 2.9-- 7---------
2010-03-15 -0.2 3.6 -1.9 -5.1 81.0- 4.0 1.7---- 3.5-- 4---------
2010-03-16 0.3 2.1 -0.7 -5.0 81.3- 7.0 1.3---- 0.7-- 8---------
2010-03-17 1.8 5.1 -1.7 -6.6 74.3- 8.0 2.0---- 0.0-- 6---------
2010-03-18 6.8 12.1 3.2 -1.0 64.5- 2.0 1.7---- 0.0------------
2010-03-19 9.5 15.6 3.4 2.1 48.5- 2.7 1.7---- 0.0------------
2010-03-20 13.1 19.1 8.5 5.0 46.0- 4.3 1.7---- 0.0------------
2010-03-21 13.2 17.5 9.2 5.4 63.8- 6.0 3.7---- 2.7------------
2010-03-22 8.6 14.6 5.7 1.5 76.8- 3.3 1.0---- 0.0------------
2010-03-23 7.1 16.1 -1.8 -4.4 71.8- 3.3 1.7---- 0.0------------
2010-03-24 7.2 16.2 -0.9 -3.6 71.5- 1.0 1.3---- 0.0------------
2010-03-25 12.4 20.1 2.3 -0.7 52.8- 1.7 2.7---- 0.0------------
2010-03-26 15.7 20.1 12.1 7.4 55.0- 1.0 3.7---- 0.0------------
186.2 ms

 

Źródłem pochodzenia danych jest Instytut Meteorologii i Gospodarki Wodnej – Państwowy Instytut Badawczy. Dane Instytutu Meteorologii i Gospodarki Wodnej – Państwowego Instytutu Badawczego zostały przetworzone.

Dane źródłowe można odnaleźć na stronie https://dane.imgw.pl